Time;durP1;ratioP1;P1;durP2;ratioP2;P2;SDS_P1;SDS_P2;PMS_P1;PMS_P2;Temp;Humidity;BMP_temperature;BMP_pressure;BME280_temperature;BME280_humidity;BME280_pressure;Samples;Min_cycle;Max_cycle;Signal;HPM_P1;HPM_P2
2022/05/09 00:00:27;;;;;;;3.20;1.83;;;9.30;99.90;;;;;;5045096;28;20041;-71
2022/05/09 00:02:53;;;;;;;4.03;2.25;;;9.20;99.90;;;;;;5044622;28;20057;-73
2022/05/09 00:05:22;;;;;;;14.00;2.33;;;9.20;99.90;;;;;;5045482;28;20038;-71
2022/05/09 00:07:49;;;;;;;5.68;1.85;;;9.20;99.90;;;;;;5044968;28;20033;-72
2022/05/09 00:10:18;;;;;;;6.93;2.45;;;9.10;99.90;;;;;;5045088;28;20461;-72
2022/05/09 00:12:43;;;;;;;3.92;2.15;;;9.10;99.90;;;;;;5044615;28;20030;-72
2022/05/09 00:15:10;;;;;;;8.68;2.30;;;9.00;99.90;;;;;;5044767;28;20024;-72
2022/05/09 00:17:36;;;;;;;4.38;2.30;;;9.00;99.90;;;;;;5044874;28;20030;-72
2022/05/09 00:20:12;;;;;;;11.88;2.67;;;9.00;99.90;;;;;;5045282;28;20044;-72
2022/05/09 00:22:50;;;;;;;7.40;2.08;;;8.90;99.90;;;;;;5043841;28;20045;-71
2022/05/09 00:25:18;;;;;;;6.15;2.30;;;8.90;99.90;;;;;;5044733;28;20049;-72
2022/05/09 00:27:43;;;;;;;2.67;1.58;;;8.90;99.90;;;;;;5044281;28;20021;-71
2022/05/09 00:30:09;;;;;;;6.78;2.25;;;8.80;99.90;;;;;;5026777;28;20059;-71
2022/05/09 00:32:35;;;;;;;8.63;2.50;;;8.80;99.90;;;;;;5044676;28;20049;-71
2022/05/09 00:35:11;;;;;;;7.43;2.63;;;8.80;99.90;;;;;;5045033;28;20025;-72
2022/05/09 00:37:38;;;;;;;4.75;2.50;;;8.80;99.90;;;;;;5044354;28;20029;-72
2022/05/09 00:40:09;;;;;;;5.72;2.13;;;8.70;99.90;;;;;;5044919;28;20057;-71
2022/05/09 00:42:36;;;;;;;4.88;2.55;;;8.70;99.90;;;;;;5044920;28;20058;-71
2022/05/09 00:45:03;;;;;;;5.88;2.42;;;8.70;99.90;;;;;;5044475;28;20049;-71
2022/05/09 00:47:29;;;;;;;5.03;1.90;;;8.70;99.90;;;;;;5043379;28;20033;-72
2022/05/09 00:49:59;;;;;;;3.40;2.25;;;8.70;99.90;;;;;;5044493;28;20030;-72
2022/05/09 00:52:43;;;;;;;11.23;3.13;;;8.60;99.90;;;;;;5042295;28;20025;-72
2022/05/09 00:55:20;;;;;;;3.30;2.20;;;8.70;99.90;;;;;;5039001;28;20087;-72
2022/05/09 00:58:04;;;;;;;12.65;3.25;;;8.70;99.90;;;;;;5024665;28;20041;-72
2022/05/09 01:00:30;;;;;;;7.72;2.38;;;8.70;99.90;;;;;;5024758;28;20046;-72
2022/05/09 01:03:04;;;;;;;5.47;2.25;;;8.60;99.90;;;;;;5016088;28;20077;-73
2022/05/09 01:05:30;;;;;;;;;;;8.60;99.90;;;;;;5044831;28;20026;-72
2022/05/09 01:07:57;;;;;;;10.23;2.95;;;8.60;99.90;;;;;;5044755;28;19912;-72
2022/05/09 01:10:32;;;;;;;9.30;2.60;;;8.60;99.90;;;;;;5044660;28;20109;-72
2022/05/09 01:13:02;;;;;;;10.00;2.35;;;8.60;99.90;;;;;;5036419;28;20029;-72
2022/05/09 01:15:28;;;;;;;5.40;2.67;;;8.60;99.90;;;;;;5024762;28;20363;-72
2022/05/09 01:17:55;;;;;;;8.93;3.13;;;8.60;99.90;;;;;;5024817;28;20043;-72
2022/05/09 01:20:21;;;;;;;8.25;2.80;;;8.50;99.90;;;;;;5024567;28;20045;-73
2022/05/09 01:22:46;;;;;;;8.70;3.25;;;8.50;99.90;;;;;;5024728;28;20092;-72
2022/05/09 01:25:16;;;;;;;13.57;3.72;;;8.50;99.90;;;;;;5029555;28;20459;-72
2022/05/09 01:27:49;;;;;;;11.95;2.88;;;8.50;99.90;;;;;;5041994;28;20034;-72
2022/05/09 01:30:21;;;;;;;10.05;2.53;;;8.50;99.90;;;;;;5020960;28;20053;-73
2022/05/09 01:32:58;;;;;;;8.60;2.92;;;8.50;99.90;;;;;;5025600;28;20033;-72
2022/05/09 01:35:42;;;;;;;5.85;2.90;;;8.50;99.90;;;;;;5046918;28;20029;-72
2022/05/09 01:38:35;;;;;;;10.93;2.42;;;8.40;99.90;;;;;;5044608;28;20037;-72
2022/05/09 01:41:03;;;;;;;7.13;2.90;;;8.40;99.90;;;;;;5047435;28;20042;-72
2022/05/09 01:43:41;;;;;;;17.02;3.38;;;8.40;99.90;;;;;;5047907;28;20041;-71
2022/05/09 01:46:28;;;;;;;15.38;3.33;;;8.40;99.90;;;;;;5029412;28;20059;-71
2022/05/09 01:51:40;;;;;;;12.40;2.45;;;8.30;99.90;;;;;;5047953;28;20489;-72
2022/05/09 01:54:06;;;;;;;3.90;2.20;;;8.30;99.90;;;;;;5047539;28;20120;-73
2022/05/09 01:56:33;;;;;;;8.27;3.58;;;8.30;99.90;;;;;;5047321;28;20032;-73
2022/05/09 01:59:00;;;;;;;12.88;3.47;;;8.30;99.90;;;;;;5047273;28;20030;-72
2022/05/09 02:01:30;;;;;;;10.80;2.25;;;8.30;99.90;;;;;;5047225;28;20076;-72
2022/05/09 02:03:56;;;;;;;10.20;2.88;;;8.20;99.90;;;;;;5047299;28;20052;-72
2022/05/09 02:06:22;;;;;;;14.15;2.80;;;8.20;99.90;;;;;;5047476;28;20094;-72
2022/05/09 02:08:48;;;;;;;6.40;2.33;;;8.20;99.90;;;;;;5046497;28;20045;-72
2022/05/09 02:11:14;;;;;;;6.35;2.70;;;8.10;99.90;;;;;;5047211;28;20061;-72
2022/05/09 02:13:40;;;;;;;14.38;3.00;;;8.10;99.90;;;;;;5047406;28;20034;-71
2022/05/09 02:16:06;;;;;;;7.82;3.58;;;8.10;99.90;;;;;;5029057;28;20113;-72
2022/05/09 02:18:33;;;;;;;10.70;3.78;;;8.10;99.90;;;;;;5047216;28;20030;-72
2022/05/09 02:20:58;;;;;;;9.23;2.72;;;8.10;99.90;;;;;;5047132;28;20037;-72
2022/05/09 02:23:24;;;;;;;9.70;3.08;;;8.10;99.90;;;;;;5046974;28;20044;-72
2022/05/09 02:25:51;;;;;;;9.15;2.35;;;8.10;99.90;;;;;;5046917;28;20033;-73
2022/05/09 02:28:17;;;;;;;7.88;3.40;;;8.10;99.90;;;;;;5028909;28;20124;-73
2022/05/09 02:30:43;;;;;;;4.13;2.45;;;8.10;99.90;;;;;;5045405;28;20036;-71
2022/05/09 02:33:11;;;;;;;6.88;3.17;;;8.10;99.90;;;;;;5046738;28;20025;-71
2022/05/09 02:35:38;;;;;;;3.83;2.42;;;8.10;99.90;;;;;;5046208;28;20029;-72
2022/05/09 02:38:04;;;;;;;7.05;3.03;;;8.10;99.90;;;;;;5046091;28;20029;-73
2022/05/09 02:40:33;;;;;;;9.40;3.80;;;8.10;99.90;;;;;;5047084;28;20041;-73
2022/05/09 02:42:59;;;;;;;3.63;2.45;;;8.10;99.90;;;;;;5028892;28;20063;-73
2022/05/09 02:45:26;;;;;;;6.05;2.22;;;8.10;99.90;;;;;;5046405;28;20025;-73
2022/05/09 02:47:54;;;;;;;12.80;3.17;;;8.00;99.90;;;;;;5028806;28;20083;-73
2022/05/09 02:50:21;;;;;;;12.02;3.50;;;8.10;99.90;;;;;;5046711;28;20453;-73
2022/05/09 02:52:48;;;;;;;11.30;3.13;;;8.00;99.90;;;;;;5046403;28;20018;-72
2022/05/09 02:55:14;;;;;;;6.70;2.85;;;8.00;99.90;;;;;;5028804;28;20112;-72
2022/05/09 02:57:40;;;;;;;11.00;3.13;;;8.00;99.90;;;;;;5028630;28;20555;-72
2022/05/09 03:00:15;;;;;;;5.57;3.22;;;8.00;99.90;;;;;;5027858;28;20041;-73
2022/05/09 03:02:41;;;;;;;7.78;2.85;;;8.00;99.90;;;;;;5028308;28;20084;-71
2022/05/09 03:05:07;;;;;;;7.80;3.30;;;7.90;99.90;;;;;;5046151;28;20029;-72
2022/05/09 03:07:34;;;;;;;6.70;2.78;;;7.90;99.90;;;;;;5045961;28;20029;-72
2022/05/09 03:10:00;;;;;;;5.90;2.13;;;7.90;99.90;;;;;;5046223;28;20030;-71
2022/05/09 03:12:25;;;;;;;11.38;3.35;;;7.90;99.90;;;;;;5045930;28;20052;-72
2022/05/09 03:14:51;;;;;;;9.10;3.83;;;7.80;99.90;;;;;;5046174;28;20025;-72
2022/05/09 03:17:17;;;;;;;5.18;2.67;;;7.80;99.90;;;;;;5046280;28;20021;-72
2022/05/09 03:19:43;;;;;;;7.38;3.00;;;7.80;99.90;;;;;;5045523;28;20037;-72
2022/05/09 03:22:08;;;;;;;10.77;3.47;;;7.80;99.90;;;;;;5046168;28;20029;-72
2022/05/09 03:24:35;;;;;;;8.55;3.45;;;7.80;99.90;;;;;;5046102;28;20081;-72
2022/05/09 03:27:06;;;;;;;4.82;3.17;;;7.70;99.90;;;;;;5045510;28;20112;-72
2022/05/09 03:29:33;;;;;;;7.50;3.05;;;7.80;99.90;;;;;;5046127;28;20070;-71
2022/05/09 03:31:59;;;;;;;3.88;2.95;;;7.70;99.90;;;;;;5045662;28;20022;-71
2022/05/09 03:34:24;;;;;;;6.85;2.78;;;7.80;99.90;;;;;;5027757;28;20025;-71
2022/05/09 03:36:54;;;;;;;7.93;3.22;;;7.70;99.90;;;;;;5028150;28;20033;-72
2022/05/09 03:39:20;;;;;;;4.18;2.75;;;7.70;99.90;;;;;;5045612;28;20413;-72
2022/05/09 03:41:46;;;;;;;8.45;2.60;;;7.70;99.90;;;;;;5040093;28;20048;-72
2022/05/09 03:44:15;;;;;;;6.55;3.25;;;7.70;99.90;;;;;;5025925;28;20101;-73
2022/05/09 03:46:41;;;;;;;8.65;3.10;;;7.70;99.90;;;;;;5036582;28;20049;-71
2022/05/09 03:49:07;;;;;;;5.10;2.80;;;7.70;99.90;;;;;;5045343;28;20037;-72
2022/05/09 03:51:32;;;;;;;4.22;2.33;;;7.70;99.90;;;;;;5045634;28;20029;-71
2022/05/09 03:54:01;;;;;;;9.10;2.95;;;7.70;99.90;;;;;;5045173;28;20124;-72
2022/05/09 03:56:27;;;;;;;4.32;2.47;;;7.70;99.90;;;;;;5045414;28;20025;-72
2022/05/09 03:58:53;;;;;;;13.32;2.70;;;7.70;99.90;;;;;;5041700;28;20030;-72
2022/05/09 04:01:19;;;;;;;5.15;2.60;;;7.60;99.90;;;;;;5044733;28;20722;-72
2022/05/09 04:03:46;;;;;;;10.90;3.38;;;7.70;99.90;;;;;;5045520;28;20029;-73
2022/05/09 04:06:12;;;;;;;7.07;3.05;;;7.70;99.90;;;;;;5027335;28;20026;-72
2022/05/09 04:08:38;;;;;;;3.40;2.53;;;7.70;99.90;;;;;;5045042;28;20022;-72
2022/05/09 04:11:04;;;;;;;11.68;3.65;;;7.70;99.90;;;;;;5045193;28;20025;-72
2022/05/09 04:13:29;;;;;;;6.90;2.75;;;7.70;99.90;;;;;;5045114;28;20025;-73
2022/05/09 04:18:43;;;;;;;7.18;3.30;;;7.70;99.90;;;;;;5045287;28;20034;-73
2022/05/09 04:21:10;;;;;;;6.75;3.50;;;7.60;99.90;;;;;;5044894;28;20065;-72
2022/05/09 04:23:37;;;;;;;11.30;3.78;;;7.70;99.90;;;;;;5044763;28;20021;-73
2022/05/09 04:26:04;;;;;;;7.20;2.50;;;7.60;99.90;;;;;;5034504;28;20026;-72
2022/05/09 04:28:30;;;;;;;6.97;3.58;;;7.60;99.90;;;;;;5036037;28;20052;-72
2022/05/09 04:30:57;;;;;;;4.90;2.80;;;7.60;99.90;;;;;;5021858;28;20030;-72
2022/05/09 04:33:24;;;;;;;6.03;2.92;;;7.70;99.90;;;;;;5032078;28;20030;-72
2022/05/09 04:35:51;;;;;;;5.70;3.28;;;7.70;99.90;;;;;;5039256;28;20379;-72
2022/05/09 04:38:23;;;;;;;5.13;2.85;;;7.70;99.90;;;;;;5040347;28;20041;-72
2022/05/09 04:40:54;;;;;;;4.40;2.55;;;7.70;99.90;;;;;;5025007;28;20091;-74
2022/05/09 04:43:23;;;;;;;8.48;2.38;;;7.80;99.90;;;;;;5038520;28;20036;-72
2022/05/09 04:45:50;;;;;;;11.98;3.13;;;7.80;99.90;;;;;;5035225;28;20022;-72
2022/05/09 04:48:18;;;;;;;7.25;2.33;;;7.90;99.90;;;;;;5020235;28;20101;-73
2022/05/09 04:50:44;;;;;;;6.50;2.50;;;7.90;99.90;;;;;;5015035;28;20036;-73
2022/05/09 04:53:10;;;;;;;4.38;2.17;;;7.90;99.90;;;;;;5025482;28;20097;-73
2022/05/09 04:55:36;;;;;;;9.18;2.95;;;7.90;99.90;;;;;;5034589;28;20030;-72
2022/05/09 04:58:03;;;;;;;6.53;3.13;;;8.00;99.90;;;;;;5024966;28;20026;-74
2022/05/09 05:00:29;;;;;;;11.43;2.65;;;8.00;99.90;;;;;;5036727;28;20045;-73
2022/05/09 05:02:56;;;;;;;10.88;3.10;;;8.00;99.90;;;;;;5019817;28;20050;-72
2022/05/09 05:05:24;;;;;;;2.55;1.50;;;8.10;99.90;;;;;;5028593;28;20026;-73
2022/05/09 05:07:51;;;;;;;8.95;2.47;;;8.10;99.90;;;;;;5028894;28;20022;-73
2022/05/09 05:10:18;;;;;;;3.90;2.10;;;8.20;99.90;;;;;;5017086;28;20101;-70
2022/05/09 05:12:44;;;;;;;4.15;2.28;;;8.20;99.90;;;;;;5047373;28;20024;-71
2022/05/09 05:15:10;;;;;;;4.55;2.33;;;8.20;99.90;;;;;;5047063;28;20116;-71
2022/05/09 05:17:37;;;;;;;3.45;2.10;;;8.30;99.90;;;;;;5047032;28;20037;-72
2022/05/09 05:20:09;;;;;;;14.25;2.75;;;8.30;99.90;;;;;;5042444;28;20056;-72
2022/05/09 05:22:37;;;;;;;4.70;2.03;;;8.40;99.90;;;;;;5047433;28;20049;-73
2022/05/09 05:25:02;;;;;;;9.65;2.83;;;8.50;99.90;;;;;;5037095;28;20034;-73
2022/05/09 05:27:28;;;;;;;6.22;2.17;;;8.50;99.90;;;;;;5048000;28;20387;-73
2022/05/09 05:29:57;;;;;;;9.80;2.30;;;8.50;99.90;;;;;;5047458;28;20032;-73
2022/05/09 05:32:25;;;;;;;6.75;2.22;;;8.60;99.90;;;;;;5037312;28;20033;-72
2022/05/09 05:34:52;;;;;;;5.43;2.20;;;8.60;99.90;;;;;;5029379;28;20374;-71
2022/05/09 05:37:19;;;;;;;6.20;2.22;;;8.70;99.90;;;;;;5048139;28;20044;-72
2022/05/09 05:39:46;;;;;;;7.18;1.80;;;8.80;99.90;;;;;;5029846;28;20068;-71
2022/05/09 05:42:17;;;;;;;2.90;1.83;;;8.80;99.90;;;;;;5048077;28;20486;-72
2022/05/09 05:44:44;;;;;;;3.88;1.70;;;8.90;99.90;;;;;;5047843;28;20037;-71
2022/05/09 05:47:13;;;;;;;11.68;2.03;;;8.90;99.90;;;;;;5042203;28;20038;-72
2022/05/09 05:49:40;;;;;;;3.72;2.20;;;9.00;99.90;;;;;;5027961;28;20033;-72
2022/05/09 05:52:07;;;;;;;1.75;1.27;;;9.00;99.90;;;;;;5018332;28;20036;-73
2022/05/09 05:54:36;;;;;;;4.97;2.03;;;9.10;99.90;;;;;;5033714;28;20046;-73
2022/05/09 05:57:04;;;;;;;6.90;1.98;;;9.10;99.90;;;;;;5027919;28;20028;-73
2022/05/09 05:59:30;;;;;;;3.40;1.70;;;9.20;99.90;;;;;;5042271;28;20034;-73
2022/05/09 06:01:56;;;;;;;2.67;1.48;;;9.20;99.90;;;;;;5047305;28;20079;-72
2022/05/09 06:04:23;;;;;;;2.58;1.63;;;9.30;99.90;;;;;;5047737;28;20101;-73
2022/05/09 06:06:49;;;;;;;4.88;2.33;;;9.40;99.90;;;;;;5047334;28;20036;-72
2022/05/09 06:09:14;;;;;;;5.28;2.45;;;9.40;99.90;;;;;;5047212;28;20025;-72
2022/05/09 06:11:41;;;;;;;7.97;1.88;;;9.50;99.90;;;;;;5041215;28;20036;-72
2022/05/09 06:14:07;;;;;;;4.13;2.33;;;9.60;99.90;;;;;;5036002;28;20033;-71
2022/05/09 06:16:34;;;;;;;3.95;1.92;;;9.60;99.90;;;;;;5027252;28;20033;-72
2022/05/09 06:19:00;;;;;;;2.47;2.03;;;9.70;99.90;;;;;;5009662;28;20109;-73
2022/05/09 06:21:27;;;;;;;2.97;1.80;;;9.80;99.90;;;;;;5026877;28;20034;-71
2022/05/09 06:23:53;;;;;;;1.88;1.70;;;9.80;99.90;;;;;;5038826;28;20033;-73
2022/05/09 06:26:21;;;;;;;4.18;1.70;;;9.90;99.90;;;;;;5027404;28;20057;-72
2022/05/09 06:28:46;;;;;;;5.45;2.50;;;10.00;99.90;;;;;;5043878;28;20481;-72
2022/05/09 06:31:12;;;;;;;4.85;1.73;;;10.10;99.90;;;;;;5047018;28;20036;-72
2022/05/09 06:33:38;;;;;;;5.00;2.30;;;10.10;99.90;;;;;;5046990;28;20026;-72
2022/05/09 06:36:04;;;;;;;4.57;2.35;;;10.30;99.90;;;;;;5028792;28;20033;-72
2022/05/09 06:38:30;;;;;;;3.42;1.50;;;10.30;99.90;;;;;;5047004;28;20048;-72
2022/05/09 06:40:58;;;;;;;7.38;2.60;;;10.40;99.90;;;;;;5046498;28;20044;-73
2022/05/09 06:43:23;;;;;;;5.63;2.45;;;10.50;99.90;;;;;;5046895;28;20025;-73
2022/05/09 06:45:50;;;;;;;4.50;1.90;;;10.60;99.90;;;;;;5038493;28;20040;-73
2022/05/09 06:48:16;;;;;;;3.78;2.13;;;10.70;99.90;;;;;;5009012;28;20030;-73
2022/05/09 06:50:42;;;;;;;2.25;1.48;;;10.80;99.90;;;;;;5031757;28;20466;-73
2022/05/09 06:53:10;;;;;;;6.25;2.17;;;10.90;99.90;;;;;;5039555;28;20037;-73
2022/05/09 06:55:36;;;;;;;4.63;2.05;;;11.00;99.90;;;;;;5044329;28;20025;-73
2022/05/09 06:58:10;;;;;;;6.50;2.42;;;11.10;99.90;;;;;;5039933;28;20051;-73
2022/05/09 07:00:36;;;;;;;3.28;1.80;;;11.20;99.90;;;;;;5027020;28;20069;-72
2022/05/09 07:03:02;;;;;;;7.85;1.95;;;11.40;99.90;;;;;;5043708;28;20425;-72
2022/05/09 07:05:28;;;;;;;5.72;1.83;;;11.40;99.90;;;;;;5045747;28;20033;-73
2022/05/09 07:07:54;;;;;;;4.80;1.88;;;11.60;99.90;;;;;;5045459;28;20028;-74
2022/05/09 07:10:21;;;;;;;10.15;2.40;;;11.70;99.90;;;;;;5027443;28;20469;-74
2022/05/09 07:12:51;;;;;;;2.25;1.65;;;11.80;99.90;;;;;;5038949;28;20025;-72
2022/05/09 07:15:20;;;;;;;3.72;1.00;;;12.00;99.90;;;;;;5012816;28;20032;-73
2022/05/09 07:17:45;;;;;;;2.83;1.50;;;12.00;99.90;;;;;;5043257;28;20456;-73
2022/05/09 07:20:12;;;;;;;4.82;1.70;;;12.10;99.90;;;;;;5043694;28;20052;-74
2022/05/09 07:22:38;;;;;;;7.53;2.00;;;12.30;99.90;;;;;;5040796;28;20033;-73
2022/05/09 07:25:04;;;;;;;6.95;1.50;;;12.40;99.90;;;;;;5043470;28;20041;-73
2022/05/09 07:27:30;;;;;;;3.13;1.38;;;12.50;99.90;;;;;;5043050;28;20481;-73
2022/05/09 07:29:57;;;;;;;3.17;1.65;;;12.60;99.90;;;;;;5024910;28;20040;-75
2022/05/09 07:32:23;;;;;;;5.35;1.70;;;12.80;99.90;;;;;;5043772;28;20033;-73
2022/05/09 07:34:49;;;;;;;3.58;1.58;;;13.00;99.90;;;;;;5041237;28;20025;-73
2022/05/09 07:37:17;;;;;;;9.10;1.98;;;13.00;99.90;;;;;;5042758;28;20156;-72
2022/05/09 07:39:43;;;;;;;5.00;1.75;;;13.20;99.90;;;;;;5041409;28;20049;-73
2022/05/09 07:42:09;;;;;;;3.83;1.98;;;13.30;99.90;;;;;;5043235;28;20071;-74
2022/05/09 07:44:35;;;;;;;3.03;1.70;;;13.40;99.90;;;;;;5041658;28;20029;-71
2022/05/09 07:47:01;;;;;;;2.88;1.25;;;13.50;99.90;;;;;;5038244;28;20029;-71
2022/05/09 07:49:29;;;;;;;4.60;1.80;;;13.70;99.90;;;;;;5041648;28;20553;-73
2022/05/09 07:51:55;;;;;;;3.70;2.03;;;13.80;99.90;;;;;;5042606;28;20029;-73
2022/05/09 07:54:21;;;;;;;5.63;1.33;;;13.90;99.90;;;;;;5042770;28;20466;-74
2022/05/09 07:56:47;;;;;;;18.30;2.20;;;14.00;99.90;;;;;;5042991;28;20048;-72
2022/05/09 07:59:13;;;;;;;3.67;1.73;;;14.10;99.90;;;;;;5040797;28;20028;-73
2022/05/09 08:01:39;;;;;;;7.97;1.70;;;14.20;99.90;;;;;;5042022;28;20049;-73
2022/05/09 08:04:05;;;;;;;2.70;1.67;;;14.30;99.90;;;;;;5042863;28;20109;-74
2022/05/09 08:06:31;;;;;;;2.15;1.50;;;14.40;99.90;;;;;;5041710;28;20044;-73
2022/05/09 08:08:58;;;;;;;3.35;1.50;;;14.40;99.90;;;;;;5022755;28;20064;-74
2022/05/09 08:11:25;;;;;;;1.83;1.15;;;14.60;99.90;;;;;;5042206;28;20021;-74
2022/05/09 08:14:00;;;;;;;2.42;1.33;;;14.60;99.90;;;;;;5042315;28;20062;-75
2022/05/09 08:16:30;;;;;;;12.38;1.67;;;14.80;99.90;;;;;;5024214;28;20085;-73
2022/05/09 08:18:58;;;;;;;7.50;1.30;;;14.90;99.90;;;;;;5041090;28;20032;-75
2022/05/09 08:21:27;;;;;;;3.78;1.65;;;14.90;99.90;;;;;;5040629;28;20041;-72
2022/05/09 08:23:54;;;;;;;1.77;1.25;;;15.00;99.90;;;;;;5039330;28;20021;-75
2022/05/09 08:26:22;;;;;;;4.88;1.83;;;15.10;99.90;;;;;;5041481;28;20068;-72
2022/05/09 08:28:49;;;;;;;4.10;1.50;;;15.20;99.90;;;;;;5042470;28;20021;-73
2022/05/09 08:31:18;;;;;;;5.13;1.30;;;15.30;99.90;;;;;;5042169;28;20021;-72
2022/05/09 08:33:49;;;;;;;3.40;1.48;;;15.40;99.90;;;;;;5041369;28;20389;-72
2022/05/09 08:37:02;;;;;;;4.40;1.33;;;15.50;99.90;;;;;;5024275;28;20029;-74
2022/05/09 08:39:03;;;;;;;13.50;2.00;;;15.70;99.90;;;;;;5022037;28;20037;-74
2022/05/09 08:41:55;;;;;;;7.82;1.80;;;15.90;99.90;;;;;;5041340;28;20034;-72
2022/05/09 08:44:43;;;;;;;0.95;0.75;;;16.00;99.90;;;;;;5009473;28;20092;-74
2022/05/09 08:47:38;;;;;;;9.75;1.77;;;16.20;99.90;;;;;;5040162;28;20040;-75
2022/05/09 08:50:16;;;;;;;4.07;1.65;;;16.30;99.90;;;;;;5022977;28;20486;-74
2022/05/09 08:52:49;;;;;;;8.07;1.60;;;16.40;99.90;;;;;;5042196;28;20047;-75
2022/05/09 08:55:27;;;;;;;7.97;1.70;;;16.40;99.90;;;;;;5035560;28;20030;-75
2022/05/09 08:58:11;;;;;;;4.80;1.65;;;16.50;99.90;;;;;;5023234;28;20029;-74
2022/05/09 09:00:38;;;;;;;4.70;1.27;;;16.60;99.90;;;;;;5021443;28;20095;-72
2022/05/09 09:03:31;;;;;;;2.30;0.93;;;16.80;99.90;;;;;;5040849;28;20105;-73
2022/05/09 09:06:30;;;;;;;4.75;1.23;;;16.80;99.90;;;;;;5028563;28;20049;-72
2022/05/09 09:09:15;;;;;;;4.10;1.00;;;16.90;99.90;;;;;;5035184;28;20034;-73
2022/05/09 09:12:06;;;;;;;2.05;0.82;;;17.00;99.90;;;;;;5036510;28;20040;-73
2022/05/09 09:14:41;;;;;;;2.42;1.08;;;17.10;99.90;;;;;;5022350;28;20057;-70
2022/05/09 09:17:16;;;;;;;3.53;1.27;;;17.20;99.90;;;;;;5023868;28;20036;-73
2022/05/09 09:19:50;;;;;;;6.25;0.85;;;17.40;99.90;;;;;;5023548;28;20120;-71
2022/05/09 09:22:46;;;;;;;7.18;1.65;;;17.40;99.90;;;;;;5041234;28;20034;-72
2022/05/09 09:25:28;;;;;;;4.53;1.63;;;17.50;99.90;;;;;;5040023;28;20056;-74
2022/05/09 09:28:10;;;;;;;2.42;1.13;;;17.50;99.90;;;;;;5040383;28;20044;-73
2022/05/09 09:30:38;;;;;;;3.45;0.90;;;17.60;99.90;;;;;;5041002;28;20033;-73
2022/05/09 09:33:08;;;;;;;2.40;1.00;;;17.70;99.90;;;;;;5026519;28;20389;-73
2022/05/09 09:35:55;;;;;;;4.00;0.90;;;17.80;99.90;;;;;;5043482;28;20036;-74
2022/05/09 09:38:40;;;;;;;5.32;1.33;;;17.90;99.90;;;;;;5026377;28;20452;-73
2022/05/09 09:41:31;;;;;;;8.93;1.77;;;17.90;99.90;;;;;;5042968;28;20045;-72
2022/05/09 09:44:22;;;;;;;4.57;1.20;;;18.00;99.90;;;;;;5037767;28;20049;-72
2022/05/09 09:47:18;;;;;;;1.27;0.93;;;18.00;99.90;;;;;;5025445;28;20033;-72
2022/05/09 09:49:45;;;;;;;2.80;1.08;;;18.10;99.90;;;;;;5042537;28;20033;-73
2022/05/09 09:52:18;;;;;;;2.75;1.33;;;18.20;99.90;;;;;;5037869;28;20029;-72
2022/05/09 09:55:08;;;;;;;3.13;1.08;;;18.20;99.90;;;;;;5037888;28;20061;-73
2022/05/09 09:57:37;;;;;;;6.38;1.70;;;18.30;99.90;;;;;;5028870;28;20029;-76
2022/05/09 10:00:29;;;;;;;5.45;1.13;;;18.30;99.90;;;;;;5023595;28;20555;-74
2022/05/09 10:03:13;;;;;;;1.60;0.82;;;18.40;99.90;;;;;;5036645;28;20099;-73
2022/05/09 10:05:41;;;;;;;1.30;0.85;;;18.60;99.90;;;;;;5029475;28;20523;-73
2022/05/09 10:08:26;;;;;;;3.25;1.27;;;18.70;99.90;;;;;;5028605;28;20367;-72
2022/05/09 10:11:07;;;;;;;3.55;1.27;;;18.90;99.90;;;;;;5039167;28;20036;-75
2022/05/09 10:13:44;;;;;;;9.70;2.08;;;19.00;99.90;;;;;;5034060;28;20034;-75
2022/05/09 10:16:41;;;;;;;4.15;1.20;;;19.20;99.90;;;;;;5046224;28;20080;-77
2022/05/09 10:19:10;;;;;;;4.35;1.17;;;19.20;99.90;;;;;;5046578;28;20018;-74
2022/05/09 10:24:51;;;;;;;1.35;0.80;;;19.30;99.90;;;;;;5047176;28;20036;-75
2022/05/09 10:27:22;;;;;;;7.30;1.33;;;19.30;99.90;;;;;;5047076;28;20033;-76
2022/05/09 10:29:56;;;;;;;3.95;1.38;;;19.50;99.90;;;;;;5041221;28;20378;-73
2022/05/09 10:32:47;;;;;;;2.67;0.95;;;19.60;99.90;;;;;;5020469;28;20017;-75
2022/05/09 10:35:26;;;;;;;1.92;1.10;;;19.60;99.90;;;;;;5047002;28;20079;-73
2022/05/09 10:38:11;;;;;;;1.30;0.70;;;19.60;99.90;;;;;;5047213;28;20079;-76
2022/05/09 10:40:54;;;;;;;4.75;1.35;;;19.60;99.90;;;;;;5028937;28;20037;-76
2022/05/09 10:43:36;;;;;;;1.60;0.80;;;19.70;99.90;;;;;;5047300;28;20473;-77
2022/05/09 10:46:15;;;;;;;1.65;0.70;;;19.90;99.90;;;;;;5046689;28;20036;-75
2022/05/09 10:48:52;;;;;;;2.53;0.90;;;20.00;99.90;;;;;;5028900;28;20093;-75
2022/05/09 10:51:28;;;;;;;4.15;1.00;;;20.10;99.90;;;;;;5046798;28;20026;-76
2022/05/09 10:53:58;;;;;;;2.15;0.98;;;20.10;99.80;;;;;;5035840;28;20017;-75
2022/05/09 10:56:31;;;;;;;2.97;1.15;;;20.10;99.80;;;;;;5025839;28;20053;-74
2022/05/09 10:59:08;;;;;;;3.55;1.17;;;20.10;98.60;;;;;;5032223;28;20026;-75
2022/05/09 11:01:52;;;;;;;2.20;0.82;;;20.10;99.00;;;;;;5032078;28;20061;-73
2022/05/09 11:04:18;;;;;;;4.40;1.15;;;20.30;98.30;;;;;;5035686;28;20087;-74
2022/05/09 11:07:12;;;;;;;8.40;1.50;;;20.50;98.20;;;;;;5036502;28;20038;-73
2022/05/09 11:09:45;;;;;;;5.63;1.30;;;20.50;97.50;;;;;;5026348;28;20120;-73
2022/05/09 11:12:16;;;;;;;2.90;1.30;;;20.60;96.60;;;;;;5026604;28;20065;-74
2022/05/09 11:14:48;;;;;;;1.23;0.80;;;20.40;97.00;;;;;;5036882;28;20025;-71
2022/05/09 11:17:22;;;;;;;6.07;0.88;;;20.40;97.10;;;;;;5036190;28;20037;-71
2022/05/09 11:20:10;;;;;;;5.25;1.15;;;20.50;96.80;;;;;;5026087;28;20042;-75
2022/05/09 11:23:17;;;;;;;6.22;1.50;;;20.70;95.80;;;;;;5034680;28;20038;-71
2022/05/09 11:26:13;;;;;;;3.88;1.17;;;20.60;96.20;;;;;;5030063;28;20056;-72
2022/05/09 11:28:57;;;;;;;2.40;0.85;;;20.60;96.50;;;;;;5028416;28;20030;-71
2022/05/09 11:31:37;;;;;;;4.05;1.45;;;20.70;96.40;;;;;;5039691;28;20026;-69
2022/05/09 11:34:22;;;;;;;7.18;1.10;;;20.80;97.20;;;;;;5043774;28;20040;-71
2022/05/09 11:37:06;;;;;;;3.80;1.13;;;21.00;96.10;;;;;;5033155;28;20068;-71
2022/05/09 11:40:17;;;;;;;8.98;1.15;;;21.00;95.50;;;;;;5030264;28;20069;-73
2022/05/09 11:46:29;;;;;;;3.58;1.00;;;21.20;96.00;;;;;;5034668;28;20036;-71
2022/05/09 11:49:36;;;;;;;4.22;1.20;;;21.30;95.50;;;;;;5041729;28;20029;-72
2022/05/09 11:52:12;;;;;;;1.90;1.00;;;21.40;95.00;;;;;;5044780;28;20473;-70
2022/05/09 11:54:41;;;;;;;3.17;0.80;;;21.50;95.50;;;;;;5043348;28;20030;-72
2022/05/09 11:57:16;;;;;;;2.00;1.00;;;21.60;95.80;;;;;;5042630;28;20037;-74
2022/05/09 11:59:58;;;;;;;3.00;1.40;;;21.80;95.60;;;;;;5035777;28;20100;-71
2022/05/09 12:02:49;;;;;;;3.00;1.17;;;21.90;95.90;;;;;;5023968;28;20068;-73
2022/05/09 12:05:26;;;;;;;4.63;0.90;;;22.10;94.90;;;;;;5033316;28;20044;-73
2022/05/09 12:08:02;;;;;;;0.73;0.70;;;22.40;95.10;;;;;;5006925;28;20038;-70
2022/05/09 12:10:28;;;;;;;8.55;1.73;;;22.50;94.70;;;;;;5025341;28;20548;-71
2022/05/09 12:12:59;;;;;;;3.45;0.80;;;22.60;95.60;;;;;;5025758;28;20032;-73
2022/05/09 12:15:24;;;;;;;2.25;0.93;;;22.80;94.80;;;;;;5025332;28;20045;-74
2022/05/09 12:18:00;;;;;;;5.55;1.55;;;22.90;94.80;;;;;;5028392;28;20032;-75
2022/05/09 12:20:27;;;;;;;1.60;0.93;;;23.00;95.30;;;;;;5013571;28;20509;-75
2022/05/09 12:23:33;;;;;;;1.27;0.88;;;23.10;95.20;;;;;;5022301;28;20064;-75
2022/05/09 12:26:05;;;;;;;6.40;1.23;;;23.30;93.90;;;;;;5024840;28;20034;-73
2022/05/09 12:28:34;;;;;;;2.58;0.80;;;23.40;95.00;;;;;;5025232;28;20056;-71
2022/05/09 12:31:24;;;;;;;1.55;0.82;;;23.50;93.80;;;;;;5024977;28;20489;-74
2022/05/09 12:33:52;;;;;;;2.97;0.98;;;23.50;93.70;;;;;;4987282;28;20449;-72
2022/05/09 12:36:21;;;;;;;1.65;1.00;;;23.60;95.00;;;;;;5034160;28;20017;-74
2022/05/09 12:38:50;;;;;;;3.47;1.05;;;23.80;94.70;;;;;;5017485;28;20515;-73
2022/05/09 12:41:23;;;;;;;1.10;0.57;;;24.00;94.80;;;;;;5043568;28;20041;-73
2022/05/09 12:43:54;;;;;;;2.83;0.90;;;24.20;94.60;;;;;;5027934;28;20029;-74
2022/05/09 12:46:33;;;;;;;0.93;0.75;;;24.40;94.70;;;;;;5024593;28;20096;-73
2022/05/09 12:49:02;;;;;;;3.03;0.90;;;24.50;93.10;;;;;;5025113;28;20089;-74
2022/05/09 12:51:30;;;;;;;5.13;0.95;;;24.40;93.70;;;;;;5023700;28;20030;-73
2022/05/09 12:53:58;;;;;;;4.53;1.23;;;24.50;93.30;;;;;;5024717;28;20034;-73
2022/05/09 12:56:27;;;;;;;4.00;1.20;;;24.70;93.90;;;;;;5025045;28;20033;-76
2022/05/09 12:59:08;;;;;;;2.75;0.95;;;24.80;93.50;;;;;;5023348;28;20026;-72
2022/05/09 13:01:35;;;;;;;2.30;0.90;;;24.80;92.00;;;;;;5024542;28;20041;-71
2022/05/09 13:04:05;;;;;;;2.70;1.13;;;24.80;92.70;;;;;;5024539;28;20479;-75
2022/05/09 13:06:45;;;;;;;2.58;0.82;;;25.00;93.30;;;;;;5023479;28;20033;-72
2022/05/09 13:09:20;;;;;;;7.78;1.25;;;25.20;92.00;;;;;;5023621;28;20030;-75
2022/05/09 13:12:01;;;;;;;3.70;1.10;;;25.30;92.50;;;;;;5025060;28;20045;-73
2022/05/09 13:14:38;;;;;;;2.78;0.90;;;25.30;91.10;;;;;;5032199;28;20024;-74
2022/05/09 13:17:12;;;;;;;1.75;0.93;;;25.30;90.50;;;;;;5044612;28;20030;-72
2022/05/09 13:19:37;;;;;;;;;;;25.30;91.90;;;;;;5028574;28;20052;-74
2022/05/09 13:22:04;;;;;;;8.25;1.13;;;25.30;89.70;;;;;;5048316;28;19909;-74
2022/05/09 13:24:32;;;;;;;1.35;0.90;;;25.40;91.40;;;;;;5048301;28;20108;-73